createdAt,value
2019-03-19T00:00:21.722Z,11.41
2019-03-19T00:02:50.433Z,11.28
2019-03-19T00:05:19.057Z,11.54
2019-03-19T00:07:47.715Z,11.62
2019-03-19T00:10:16.375Z,11.40
2019-03-19T00:12:45.045Z,11.23
2019-03-19T00:15:13.714Z,10.99
2019-03-19T00:17:42.388Z,11.05
2019-03-19T00:20:13.559Z,10.89
2019-03-19T00:22:42.378Z,10.85
2019-03-19T00:25:11.044Z,10.82
2019-03-19T00:27:39.730Z,10.75
2019-03-19T00:30:15.945Z,10.64
2019-03-19T00:32:44.719Z,10.53
2019-03-19T00:35:13.994Z,10.49
2019-03-19T00:37:42.671Z,10.40
2019-03-19T00:40:15.806Z,10.45
2019-03-19T00:42:44.478Z,10.41
2019-03-19T00:45:14.255Z,10.33
2019-03-19T00:47:42.912Z,10.26
2019-03-19T00:50:13.486Z,10.37
2019-03-19T00:52:42.157Z,10.26
2019-03-19T00:55:11.430Z,10.27
2019-03-19T00:57:40.098Z,10.34
2019-03-19T01:00:14.580Z,10.34
2019-03-19T01:02:43.272Z,10.38
2019-03-19T01:05:12.057Z,10.33
2019-03-19T01:07:40.733Z,10.15
2019-03-19T01:10:17.635Z,10.00
2019-03-19T01:12:46.555Z,9.99
2019-03-19T01:15:15.828Z,10.00
2019-03-19T01:17:44.895Z,9.91
2019-03-19T01:20:17.179Z,9.88
2019-03-19T01:22:45.842Z,9.79
2019-03-19T01:25:14.634Z,9.80
2019-03-19T01:27:43.320Z,9.78
2019-03-19T01:30:15.907Z,9.80
2019-03-19T01:32:44.567Z,9.74
2019-03-19T01:35:13.350Z,9.88
2019-03-19T01:37:42.002Z,10.14
2019-03-19T01:40:12.751Z,10.20
2019-03-19T01:42:41.520Z,10.36
2019-03-19T01:45:13.741Z,10.37
2019-03-19T01:47:42.407Z,10.49
2019-03-19T01:50:15.152Z,10.54
2019-03-19T01:52:44.041Z,10.51
2019-03-19T01:55:14.659Z,10.47
2019-03-19T01:57:43.319Z,10.46
2019-03-19T02:00:14.232Z,10.41
2019-03-19T02:02:42.911Z,10.40
2019-03-19T02:05:11.684Z,10.33
2019-03-19T02:07:40.349Z,10.34
2019-03-19T02:10:12.827Z,10.28
2019-03-19T02:12:41.689Z,10.28
2019-03-19T02:15:15.968Z,10.21
2019-03-19T02:17:44.812Z,10.21
2019-03-19T02:20:14.909Z,10.15
2019-03-19T02:22:43.705Z,10.17
2019-03-19T02:25:12.386Z,10.17
2019-03-19T02:27:41.083Z,10.06
2019-03-19T02:30:16.346Z,9.91
2019-03-19T02:32:45.018Z,9.77
2019-03-19T02:35:13.713Z,9.77
2019-03-19T02:37:42.408Z,9.70
2019-03-19T02:40:13.418Z,9.67
2019-03-19T02:42:42.074Z,9.59
2019-03-19T02:45:12.119Z,9.49
2019-03-19T02:47:40.757Z,9.42
2019-03-19T02:50:12.163Z,9.31
2019-03-19T02:52:40.843Z,9.22
2019-03-19T02:55:10.614Z,9.25
2019-03-19T02:57:39.306Z,9.25
2019-03-19T03:00:13.334Z,9.31
2019-03-19T03:02:42.099Z,9.32
2019-03-19T03:05:18.874Z,9.43
2019-03-19T03:07:47.543Z,9.45
2019-03-19T03:10:16.215Z,9.37
2019-03-19T03:12:44.895Z,9.37
2019-03-19T03:15:14.748Z,9.35
2019-03-19T03:17:43.437Z,9.25
2019-03-19T03:20:13.704Z,9.17
2019-03-19T03:22:42.369Z,9.13
2019-03-19T03:25:18.092Z,9.19
2019-03-19T03:27:46.755Z,9.10
2019-03-19T03:30:17.727Z,9.08
2019-03-19T03:32:46.670Z,9.01
2019-03-19T03:35:15.352Z,8.90
2019-03-19T03:37:44.025Z,8.79
2019-03-19T03:40:14.577Z,8.73
2019-03-19T03:42:43.792Z,8.65
2019-03-19T03:45:14.531Z,8.56
2019-03-19T03:47:43.516Z,8.49
2019-03-19T03:50:13.880Z,8.44
2019-03-19T03:52:42.640Z,8.45
2019-03-19T03:55:12.907Z,8.37
2019-03-19T03:57:41.531Z,8.41
2019-03-19T04:00:21.346Z,8.40
2019-03-19T04:02:50.015Z,8.52
2019-03-19T04:05:19.009Z,8.59
2019-03-19T04:07:47.662Z,8.64
2019-03-19T04:10:19.971Z,8.63
2019-03-19T04:12:48.636Z,8.61
2019-03-19T04:15:18.106Z,8.62
2019-03-19T04:17:46.821Z,8.63
2019-03-19T04:20:19.217Z,8.64
2019-03-19T04:22:48.095Z,8.62
2019-03-19T04:25:16.776Z,8.66
2019-03-19T04:27:45.518Z,8.65
2019-03-19T04:30:20.931Z,8.67
2019-03-19T04:32:49.916Z,8.66
2019-03-19T04:35:18.579Z,8.70
2019-03-19T04:37:47.256Z,8.70
2019-03-19T04:40:18.888Z,8.75
2019-03-19T04:42:47.847Z,8.75
2019-03-19T04:45:17.231Z,8.68
2019-03-19T04:47:45.929Z,8.73
2019-03-19T04:50:16.631Z,8.76
2019-03-19T04:52:45.479Z,8.82
2019-03-19T04:55:16.140Z,8.85
2019-03-19T04:57:45.098Z,8.84
2019-03-19T05:00:17.521Z,8.87
2019-03-19T05:02:46.181Z,8.96
2019-03-19T05:05:15.059Z,9.05
2019-03-19T05:07:44.006Z,9.07
2019-03-19T05:10:14.968Z,9.12
2019-03-19T05:12:43.687Z,9.32
2019-03-19T05:15:12.982Z,9.43
2019-03-19T05:17:42.153Z,9.40
2019-03-19T05:20:15.017Z,9.46
2019-03-19T05:22:43.754Z,9.56
2019-03-19T05:25:12.622Z,9.69
2019-03-19T05:27:41.302Z,9.79
2019-03-19T05:30:20.626Z,9.92
2019-03-19T05:32:49.272Z,9.97
2019-03-19T05:35:17.951Z,10.15
2019-03-19T05:37:46.618Z,10.37
2019-03-19T05:40:16.591Z,10.73
2019-03-19T05:42:45.471Z,10.84
2019-03-19T05:45:15.216Z,11.14
2019-03-19T05:47:44.160Z,11.20
2019-03-19T05:50:15.310Z,11.34
2019-03-19T05:52:44.353Z,11.52
2019-03-19T05:55:13.519Z,11.72
2019-03-19T05:57:49.330Z,11.64
2019-03-19T06:00:17.245Z,12.00
2019-03-19T06:02:46.105Z,12.38
2019-03-19T06:05:14.802Z,11.96
2019-03-19T06:07:43.467Z,11.64
2019-03-19T06:10:13.660Z,11.59
2019-03-19T06:12:42.350Z,11.82
2019-03-19T06:15:15.363Z,11.58
2019-03-19T06:17:44.602Z,11.75
2019-03-19T06:20:14.675Z,11.82
2019-03-19T06:22:43.360Z,11.81
2019-03-19T06:25:13.759Z,12.01
2019-03-19T06:27:43.397Z,12.07
2019-03-19T06:30:18.873Z,12.35
2019-03-19T06:32:47.638Z,12.96
2019-03-19T06:35:17.106Z,13.62
2019-03-19T06:37:46.008Z,14.02
2019-03-19T06:40:22.238Z,14.19
2019-03-19T06:42:50.917Z,14.18
2019-03-19T06:45:22.873Z,14.55
2019-03-19T06:47:50.700Z,15.56
2019-03-19T06:50:22.524Z,15.82
2019-03-19T06:52:51.311Z,16.48
2019-03-19T06:55:20.898Z,15.91
2019-03-19T06:57:50.114Z,15.89
2019-03-19T07:00:21.794Z,16.05
2019-03-19T07:02:50.554Z,15.73
2019-03-19T07:05:19.896Z,16.06
2019-03-19T07:07:49.113Z,16.36
2019-03-19T07:10:19.125Z,16.09
2019-03-19T07:12:47.866Z,15.93
2019-03-19T07:15:20.959Z,15.30
2019-03-19T07:17:49.740Z,15.43
2019-03-19T07:20:19.993Z,15.74
2019-03-19T07:22:48.854Z,14.99
2019-03-19T07:25:19.311Z,14.45
2019-03-19T07:27:49.545Z,13.77
2019-03-19T07:30:20.697Z,14.43
2019-03-19T07:32:49.479Z,14.87
2019-03-19T07:35:18.451Z,15.60
2019-03-19T07:37:47.241Z,15.63
2019-03-19T07:40:19.391Z,16.86
2019-03-19T07:42:50.910Z,18.27
2019-03-19T07:45:21.639Z,18.84
2019-03-19T07:47:50.785Z,19.71
2019-03-19T07:50:21.804Z,20.21
2019-03-19T07:52:50.785Z,20.48
2019-03-19T07:55:19.797Z,20.88
2019-03-19T07:57:48.634Z,21.41
2019-03-19T08:00:21.494Z,22.66
2019-03-19T08:02:51.899Z,22.52
2019-03-19T08:05:20.708Z,21.93
2019-03-19T08:07:49.406Z,23.28
2019-03-19T08:10:19.899Z,23.52
2019-03-19T08:12:54.163Z,23.24
2019-03-19T08:15:21.045Z,23.13
2019-03-19T08:17:49.740Z,20.97
2019-03-19T08:20:18.905Z,20.47
2019-03-19T08:22:47.656Z,21.00
2019-03-19T08:25:16.829Z,20.95
2019-03-19T08:27:45.816Z,20.84
2019-03-19T08:30:25.231Z,21.58
2019-03-19T08:32:53.993Z,21.83
2019-03-19T08:35:22.679Z,22.51
2019-03-19T08:37:51.389Z,22.37
2019-03-19T08:40:21.072Z,24.03
2019-03-19T08:42:50.062Z,24.49
2019-03-19T08:45:26.385Z,22.93
2019-03-19T08:47:55.190Z,24.66
2019-03-19T08:50:24.699Z,24.99
2019-03-19T08:52:55.390Z,25.32
2019-03-19T08:55:23.962Z,25.02
2019-03-19T08:57:52.687Z,24.55
2019-03-19T09:00:22.497Z,24.61
2019-03-19T09:02:51.174Z,24.59
2019-03-19T09:05:19.946Z,23.96
2019-03-19T09:07:48.634Z,24.09
2019-03-19T09:10:25.150Z,25.38
2019-03-19T09:12:53.983Z,26.50
2019-03-19T09:15:29.623Z,25.16
2019-03-19T09:17:58.306Z,24.32
2019-03-19T09:20:27.275Z,25.71
2019-03-19T09:22:56.228Z,26.63
2019-03-19T09:25:24.895Z,27.52
2019-03-19T09:27:53.661Z,27.36
2019-03-19T09:30:24.004Z,28.90
2019-03-19T09:32:53.353Z,28.80
2019-03-19T09:35:22.122Z,26.85
2019-03-19T09:37:58.311Z,27.58
2019-03-19T09:40:22.044Z,28.77
2019-03-19T09:42:50.743Z,27.62
2019-03-19T09:45:20.033Z,29.52
2019-03-19T09:47:48.739Z,30.53
2019-03-19T09:50:25.206Z,31.00
2019-03-19T09:52:53.925Z,28.97
2019-03-19T09:55:22.843Z,28.88
2019-03-19T09:57:51.742Z,29.22
2019-03-19T10:00:21.662Z,30.63
2019-03-19T10:02:50.921Z,30.61
2019-03-19T10:05:20.060Z,26.74
2019-03-19T10:07:48.885Z,27.61
2019-03-19T10:10:18.377Z,29.19
2019-03-19T10:12:47.079Z,27.81
2019-03-19T10:15:16.896Z,28.54
2019-03-19T10:17:45.660Z,29.29
2019-03-19T10:20:19.329Z,27.79
2019-03-19T10:22:48.025Z,26.43
2019-03-19T10:25:17.418Z,25.51
2019-03-19T10:27:46.582Z,23.87
2019-03-19T10:30:25.121Z,22.40
2019-03-19T10:32:53.864Z,21.16
2019-03-19T10:35:23.340Z,20.87
2019-03-19T10:37:52.044Z,22.27
2019-03-19T10:40:22.010Z,24.68
2019-03-19T10:42:51.005Z,22.90
2019-03-19T10:45:21.382Z,23.33
2019-03-19T10:47:50.672Z,22.82
2019-03-19T10:50:23.593Z,22.02
2019-03-19T10:52:52.391Z,21.59
2019-03-19T10:55:21.322Z,24.85
2019-03-19T10:57:50.294Z,29.03
2019-03-19T11:00:23.792Z,30.64
2019-03-19T11:02:53.285Z,31.65
2019-03-19T11:05:23.846Z,29.83
2019-03-19T11:08:03.123Z,30.68
2019-03-19T11:10:32.109Z,30.97
2019-03-19T11:13:00.791Z,31.99
2019-03-19T11:15:31.495Z,32.60
2019-03-19T11:18:00.091Z,33.58
2019-03-19T11:20:28.986Z,33.71
2019-03-19T11:22:58.055Z,29.48
2019-03-19T11:25:28.129Z,27.42
2019-03-19T11:27:57.726Z,27.02
2019-03-19T11:30:30.802Z,26.20
2019-03-19T11:32:59.910Z,26.19
2019-03-19T11:35:28.893Z,28.68
2019-03-19T11:37:57.675Z,29.15
2019-03-19T11:40:26.576Z,28.14
2019-03-19T11:42:55.669Z,26.35
2019-03-19T11:45:25.013Z,26.54
2019-03-19T11:47:53.759Z,25.41
2019-03-19T11:50:23.724Z,24.21
2019-03-19T11:52:53.261Z,23.67
2019-03-19T11:55:22.463Z,23.52
2019-03-19T11:57:51.448Z,22.81
2019-03-19T12:00:29.617Z,22.35
2019-03-19T12:02:58.791Z,22.44
2019-03-19T12:05:27.828Z,22.70
2019-03-19T12:07:57.134Z,25.44
2019-03-19T12:10:26.074Z,27.81
2019-03-19T12:12:54.890Z,31.25
2019-03-19T12:15:23.752Z,33.90
2019-03-19T12:17:52.472Z,33.99
2019-03-19T12:20:21.235Z,35.30
2019-03-19T12:22:50.017Z,35.98
2019-03-19T12:25:20.006Z,35.12
2019-03-19T12:27:48.729Z,34.28
2019-03-19T12:30:25.786Z,33.85
2019-03-19T12:32:52.743Z,33.88
2019-03-19T12:35:21.556Z,35.12
2019-03-19T12:37:50.524Z,33.80
2019-03-19T12:40:35.903Z,31.93
2019-03-19T12:42:55.321Z,32.44
2019-03-19T12:45:24.853Z,34.12
2019-03-19T12:47:53.607Z,35.56
2019-03-19T12:50:24.348Z,35.37
2019-03-19T12:52:53.196Z,35.10
2019-03-19T12:55:22.239Z,34.88
2019-03-19T12:57:50.982Z,35.43
2019-03-19T13:00:34.656Z,35.19
2019-03-19T13:02:59.764Z,34.65
2019-03-19T13:05:28.987Z,33.57
2019-03-19T13:07:58.260Z,32.27
2019-03-19T13:10:27.521Z,32.59
2019-03-19T13:12:56.920Z,33.64
2019-03-19T13:15:26.010Z,33.72
2019-03-19T13:17:55.163Z,33.89
2019-03-19T13:20:24.457Z,33.97
2019-03-19T13:22:53.161Z,32.47
2019-03-19T13:25:23.080Z,34.62
2019-03-19T13:27:52.419Z,34.59
2019-03-19T13:30:25.837Z,35.86
2019-03-19T13:32:54.844Z,34.27
2019-03-19T13:35:23.725Z,33.06
2019-03-19T13:37:52.571Z,33.63
2019-03-19T13:40:21.404Z,31.39
2019-03-19T13:42:50.315Z,32.43
2019-03-19T13:45:23.557Z,31.54
2019-03-19T13:47:52.690Z,33.19
2019-03-19T13:50:22.643Z,32.61
2019-03-19T13:52:51.397Z,32.00
2019-03-19T13:55:23.713Z,32.10
2019-03-19T13:57:54.682Z,31.46
2019-03-19T14:00:23.546Z,32.54
2019-03-19T14:02:59.126Z,31.86
2019-03-19T14:05:27.670Z,31.34
2019-03-19T14:08:20.264Z,31.88
2019-03-19T14:10:49.369Z,30.49
2019-03-19T14:13:23.499Z,28.79
2019-03-19T14:28:25.724Z,30.79
2019-03-19T14:40:04.858Z,28.26
2019-03-19T14:42:53.226Z,29.50
2019-03-19T14:45:22.463Z,28.14
2019-03-19T14:47:51.129Z,28.55
2019-03-19T14:50:21.061Z,28.49
2019-03-19T14:52:49.743Z,27.96
2019-03-19T14:55:22.978Z,26.53
2019-03-19T14:57:51.758Z,25.30
2019-03-19T15:00:23.727Z,24.45
2019-03-19T15:05:49.312Z,22.57
2019-03-19T15:08:18.370Z,21.27
2019-03-19T15:10:47.159Z,20.48
2019-03-19T15:13:16.145Z,20.26
2019-03-19T15:19:05.199Z,19.28
2019-03-19T15:21:46.640Z,18.80
2019-03-19T15:27:15.468Z,18.44
2019-03-19T15:29:44.181Z,18.27
2019-03-19T15:32:12.902Z,18.10
2019-03-19T15:34:41.770Z,18.07
2019-03-19T15:37:13.363Z,17.84
2019-03-19T15:39:42.083Z,17.66
2019-03-19T15:42:10.746Z,17.16
2019-03-19T15:47:32.694Z,17.47
2019-03-19T15:50:01.544Z,17.55
2019-03-19T15:52:30.244Z,17.59
2019-03-19T15:54:58.946Z,17.68
2019-03-19T15:57:27.661Z,17.73
2019-03-19T15:59:56.333Z,17.63
2019-03-19T16:02:24.985Z,17.46
2019-03-19T16:04:53.731Z,17.33
2019-03-19T16:07:25.153Z,17.12
2019-03-19T16:09:53.869Z,17.12
2019-03-19T16:12:22.648Z,16.98
2019-03-19T16:14:51.306Z,16.76
2019-03-19T16:17:20.266Z,16.57
2019-03-19T16:19:48.981Z,16.39
2019-03-19T16:22:17.636Z,16.19
2019-03-19T16:24:46.400Z,15.96
2019-03-19T16:27:15.053Z,15.81
2019-03-19T16:29:48.636Z,15.70
2019-03-19T16:32:17.461Z,15.58
2019-03-19T16:34:51.119Z,15.39
2019-03-19T16:37:21.813Z,15.35
2019-03-19T16:39:53.954Z,15.23
2019-03-19T16:42:28.092Z,15.12
2019-03-19T16:44:59.872Z,14.98
2019-03-19T16:47:31.575Z,14.93
2019-03-19T16:50:00.424Z,14.89
2019-03-19T16:52:34.424Z,14.82
2019-03-19T16:55:07.238Z,14.69
2019-03-19T16:57:35.931Z,14.53
2019-03-19T17:00:10.642Z,14.43
2019-03-19T17:02:39.336Z,14.39
2019-03-19T17:05:10.217Z,14.42
2019-03-19T17:07:38.913Z,14.43
2019-03-19T17:10:22.746Z,14.42
2019-03-19T17:12:51.427Z,14.30
2019-03-19T17:15:20.089Z,14.26
2019-03-19T17:17:48.767Z,14.22
2019-03-19T17:20:20.562Z,14.32
2019-03-19T17:22:49.344Z,14.19
2019-03-19T17:25:27.857Z,14.11
2019-03-19T17:27:56.576Z,14.09
2019-03-19T17:30:29.254Z,14.01
2019-03-19T17:32:58.026Z,13.84
2019-03-19T17:35:26.702Z,13.78
2019-03-19T17:37:55.386Z,13.78
2019-03-19T17:40:24.264Z,13.84
2019-03-19T17:42:52.940Z,13.85
2019-03-19T17:45:21.616Z,13.82
2019-03-19T17:47:50.482Z,13.79
2019-03-19T17:50:23.645Z,13.69
2019-03-19T17:52:54.753Z,13.68
2019-03-19T17:55:34.946Z,13.59
2019-03-19T17:58:03.697Z,13.48
2019-03-19T18:00:39.991Z,13.54
2019-03-19T18:03:08.678Z,13.46
2019-03-19T18:05:37.352Z,13.44
2019-03-19T18:08:06.008Z,13.43
2019-03-19T18:10:34.706Z,13.37
2019-03-19T18:13:03.400Z,13.35
2019-03-19T18:15:32.172Z,13.34
2019-03-19T18:18:00.857Z,13.28
2019-03-19T18:20:29.521Z,13.29
2019-03-19T18:22:58.190Z,13.26
2019-03-19T18:25:26.881Z,13.26
2019-03-19T18:27:55.563Z,13.20
2019-03-19T18:30:25.145Z,13.15
2019-03-19T18:32:53.961Z,13.13
2019-03-19T18:35:22.635Z,13.06
2019-03-19T18:37:51.540Z,13.05
2019-03-19T18:40:20.803Z,13.06
2019-03-19T18:42:49.544Z,13.03
2019-03-19T18:45:20.075Z,13.02
2019-03-19T18:47:48.929Z,12.99
2019-03-19T18:50:23.910Z,12.94
2019-03-19T18:52:52.596Z,12.99
2019-03-19T18:55:21.295Z,12.97
2019-03-19T18:57:49.991Z,12.93
2019-03-19T19:00:19.971Z,12.86
2019-03-19T19:02:50.513Z,12.90
2019-03-19T19:05:23.586Z,12.87
2019-03-19T19:07:52.270Z,12.83
2019-03-19T19:10:21.667Z,12.78
2019-03-19T19:12:50.802Z,12.80
2019-03-19T19:15:20.602Z,12.72
2019-03-19T19:17:58.892Z,12.68
2019-03-19T19:20:50.364Z,12.66
2019-03-19T19:23:27.846Z,12.64
2019-03-19T19:25:56.527Z,12.59
2019-03-19T19:28:29.396Z,12.56
2019-03-19T19:30:58.268Z,12.51
2019-03-19T19:33:27.000Z,12.48
2019-03-19T19:35:55.698Z,12.48
2019-03-19T19:38:24.399Z,12.45
2019-03-19T19:40:53.275Z,12.41
2019-03-19T19:43:21.957Z,12.36
2019-03-19T19:45:50.645Z,12.31
2019-03-19T19:48:19.331Z,12.26
2019-03-19T19:50:48.005Z,12.22
2019-03-19T19:53:16.700Z,12.28
2019-03-19T19:55:45.438Z,12.20
2019-03-19T19:58:14.127Z,12.21
2019-03-19T20:00:42.794Z,12.16
2019-03-19T20:03:12.713Z,12.15
2019-03-19T20:05:41.570Z,12.10
2019-03-19T20:08:10.251Z,12.14
2019-03-19T20:10:39.095Z,12.09
2019-03-19T20:13:07.767Z,12.04
2019-03-19T20:15:36.434Z,12.01
2019-03-19T20:18:05.102Z,12.00
2019-03-19T20:20:34.784Z,12.00
2019-03-19T20:23:03.473Z,11.98
2019-03-19T20:25:32.139Z,11.89
2019-03-19T20:28:00.803Z,11.79
2019-03-19T20:30:29.575Z,11.77
2019-03-19T20:32:58.284Z,11.71
2019-03-19T20:35:27.069Z,11.77
2019-03-19T20:37:55.746Z,11.83
2019-03-19T20:40:24.432Z,11.81
2019-03-19T20:42:53.118Z,11.75
2019-03-19T20:45:28.719Z,11.73
2019-03-19T20:47:57.507Z,11.70
2019-03-19T20:50:28.621Z,11.73
2019-03-19T20:52:57.291Z,11.72
2019-03-19T20:55:25.965Z,11.66
2019-03-19T20:57:54.664Z,11.68
2019-03-19T21:00:23.562Z,11.68
2019-03-19T21:02:52.283Z,11.57
2019-03-19T21:05:21.056Z,11.53
2019-03-19T21:07:49.698Z,11.54
2019-03-19T21:10:20.719Z,11.44
2019-03-19T21:12:49.586Z,11.38
2019-03-19T21:15:21.163Z,11.33
2019-03-19T21:17:49.935Z,11.27
2019-03-19T21:20:18.604Z,11.31
2019-03-19T21:22:47.282Z,11.33
2019-03-19T21:25:15.991Z,11.35
2019-03-19T21:27:44.921Z,11.39
2019-03-19T21:30:16.217Z,11.41
2019-03-19T21:32:44.889Z,11.37
2019-03-19T21:35:13.588Z,11.32
2019-03-19T21:37:42.250Z,11.18
2019-03-19T21:40:13.133Z,11.16
2019-03-19T21:42:41.922Z,11.18
2019-03-19T21:45:15.885Z,11.11
2019-03-19T21:47:44.550Z,10.99
2019-03-19T21:50:15.085Z,10.84
2019-03-19T21:52:43.941Z,10.80
2019-03-19T21:55:14.445Z,10.78
2019-03-19T21:57:43.166Z,10.78
2019-03-19T22:00:22.079Z,10.74
2019-03-19T22:02:51.056Z,10.74
2019-03-19T22:05:19.838Z,10.70
2019-03-19T22:07:48.533Z,10.66
2019-03-19T22:10:20.663Z,10.64
2019-03-19T22:12:49.792Z,10.63
2019-03-19T22:15:25.242Z,10.64
2019-03-19T22:17:54.117Z,10.62
2019-03-19T22:20:22.792Z,10.56
2019-03-19T22:22:51.777Z,10.51
2019-03-19T22:25:20.466Z,10.45
2019-03-19T22:27:49.133Z,10.35
2019-03-19T22:30:22.026Z,10.32
2019-03-19T22:32:50.705Z,10.41
2019-03-19T22:35:19.409Z,10.42
2019-03-19T22:37:48.089Z,10.37
2019-03-19T22:40:17.764Z,10.35
2019-03-19T22:42:46.928Z,10.29
2019-03-19T22:45:16.605Z,10.32
2019-03-19T22:47:45.398Z,10.35
2019-03-19T22:50:15.596Z,10.26
2019-03-19T22:52:44.469Z,10.23
2019-03-19T22:55:14.143Z,10.19
2019-03-19T22:57:43.321Z,10.10
2019-03-19T23:00:21.361Z,10.10
2019-03-19T23:02:50.124Z,9.97
2019-03-19T23:05:18.783Z,9.92
2019-03-19T23:07:47.520Z,9.93
2019-03-19T23:10:16.195Z,9.92
2019-03-19T23:12:44.897Z,9.91
2019-03-19T23:15:14.179Z,9.79
2019-03-19T23:17:43.345Z,9.72
2019-03-19T23:20:13.710Z,9.66
2019-03-19T23:22:42.384Z,9.68
2019-03-19T23:25:11.350Z,9.69
2019-03-19T23:27:40.032Z,9.60
2019-03-19T23:30:14.605Z,9.44
2019-03-19T23:32:43.285Z,9.46
2019-03-19T23:35:12.100Z,9.50
2019-03-19T23:37:40.871Z,9.50
2019-03-19T23:40:17.342Z,9.48
2019-03-19T23:42:46.122Z,9.47
2019-03-19T23:45:15.177Z,9.38
2019-03-19T23:47:43.859Z,9.47
2019-03-19T23:50:14.233Z,9.45
2019-03-19T23:52:42.933Z,9.44
2019-03-19T23:55:12.020Z,9.44
2019-03-19T23:57:40.691Z,9.36
